KSNAKHII

Guest
Details From KSNA - Orange County - John Wayne
To KHII - LAKE HAVASU CITY
Flight Number -
Tags generated
Created
Modified
Stats Distance 183 nm / 339 km
Max Altitude 15,100 ft / 4,602 m
Waypoints 3
Social Downloads 0
Likes 0
Share VATSIM

Download

Looking for another format? Having issues loading an existing format? Contact us
Advertisement - Login to hide

Notes

Basic altitude profile: - Ascent Rate: 2500ft/min - Ascent Speed: 250kts - Cruise Altitude: 35000ft - Cruise Speed: 420kts - Descent Rate: 1500ft/min - Descent Speed: 250kts Options: - Use NATs: yes - Use PACOTS: yes - Use low airways: yes - Use high airways: yes

Route

KSNA TNP KHII

ID Type Via Altitude Latitude Longitude Leg Dist Tot Dist Heading (true) Name
O KSNA APT - 0 ft / 0 m 33.67611˚ -117.86764˚ - 0 nm - Orange County - John Wayne
TNP DME - 15,100 ft / 4,602 m 34.11223˚ -115.76991˚ 107 nm 107 nm 75° / 77° TWENTYNINE PALMS VORTAC
O KHII APT - 0 ft / 0 m 34.57112˚ -114.35828˚ 75 nm 183 nm 68° / 69° LAKE HAVASU CITY

Altitude Profile

Advertisement - Login to hide

Weather


0- 5 10 15 20 25 30 35+ Temperature / ° C

Clouds and Precipitation
Forecast for 2018-05-21 00:00 UTC. Updated 2 hours ago

Ground ~20,000 ft ~40,000 ft Winds

KSNA

Details ICAO KSNA (SNA)
Name Orange County - John Wayne
Region United States
Timezone America/Los_Angeles (UTC-7.0)
Stats Elevation 56 ft / 17 m (AMSL)
Location 33.676112° -117.867636°
Runways 2
Magnetic Variation 11.808° E

METAR

KSNA 210053Z 20007KT 10SM FEW014 BKN026 OVC032 17/13 A2988 RMK AO2 SLP119 T01720133

Decode

TAF

TAF KSNA 202320Z 2100/2124 20009KT P6SM BKN025 OVC035 FM210300 20006KT P6SM OVC016 FM211400 17007KT P6SM OVC020 FM212000 20010KT P6SM BKN025

Decode

Departure Runways

ID Width Length Bearing (true) Bearing (mag) Surface Threshold Offset Overrun Length
01L 151 ft / 46 m 5,711 ft / 1,741 m 27.81° 16.00° Asphalt 0 ft / 0 m 1,050 ft / 320 m
01R 75 ft / 23 m 2,892 ft / 881 m 27.80° 15.99° Asphalt 0 ft / 0 m 400 ft / 122 m
19L 75 ft / 23 m 2,892 ft / 881 m 207.80° 195.99° Asphalt 0 ft / 0 m 151 ft / 46 m
19R 151 ft / 46 m 5,711 ft / 1,741 m 207.81° 196.00° Asphalt 0 ft / 0 m 194 ft / 59 m

KHII

Details ICAO KHII (HII)
Name LAKE HAVASU CITY
Region United States
Timezone America/Phoenix (UTC-7.0)
Stats Elevation 781 ft / 238 m (AMSL)
Location 34.571123° -114.358277°
Runways 1
Magnetic Variation 11.138° E

METAR

KHII 210115Z AUTO 18015KT 10SM CLR 34/00 A2966 RMK AO2

Decode

TAF

Not found

Destination Runways

ID Width Length Bearing (true) Bearing (mag) Surface Threshold Offset Overrun Length
14 100 ft / 30 m 8,012 ft / 2,442 m 149.75° 138.61° Asphalt 0 ft / 0 m 200 ft / 61 m
32 100 ft / 30 m 8,012 ft / 2,442 m 329.76° 318.62° Asphalt 0 ft / 0 m 200 ft / 61 m